Time;durP1;ratioP1;P1;durP2;ratioP2;P2;SDS_P1;SDS_P2;PMS_P1;PMS_P2;Temp;Humidity;BMP_temperature;BMP_pressure;BME280_temperature;BME280_humidity;BME280_pressure;Samples;Min_cycle;Max_cycle;Signal;HPM_P1;HPM_P2
2023/03/16 00:02:12;;;;;;;3.30;1.33;;;4.20;99.90;;;;;;5109461;27;20043;-76
2023/03/16 00:04:38;;;;;;;4.35;1.42;;;4.20;99.90;;;;;;5110917;27;20126;-77
2023/03/16 00:07:09;;;;;;;7.97;1.35;;;4.80;99.90;;;;;;5127733;27;20118;-76
2023/03/16 00:09:39;;;;;;;3.88;1.45;;;4.20;99.90;;;;;;5129238;27;20043;-76
2023/03/16 00:12:14;;;;;;;3.17;1.17;;;4.20;99.90;;;;;;5110089;27;20128;-76
2023/03/16 00:14:44;;;;;;;3.63;1.40;;;4.20;99.90;;;;;;5094232;27;20051;-76
2023/03/16 00:17:17;;;;;;;7.32;1.50;;;4.20;99.90;;;;;;5110491;27;20104;-76
2023/03/16 00:19:45;;;;;;;6.90;1.70;;;4.20;99.90;;;;;;5127225;27;20544;-76
2023/03/16 00:22:13;;;;;;;8.20;1.63;;;5.20;99.90;;;;;;5093525;27;20051;-76
2023/03/16 00:24:43;;;;;;;5.07;2.10;;;4.20;99.90;;;;;;5128918;27;20047;-76
2023/03/16 00:27:13;;;;;;;11.32;1.77;;;5.80;99.90;;;;;;5110503;27;20461;-76
2023/03/16 00:29:54;;;;;;;4.45;1.55;;;4.20;99.90;;;;;;5128697;27;20535;-76
2023/03/16 00:32:22;;;;;;;4.75;1.13;;;4.20;99.90;;;;;;5127249;27;20050;-76
2023/03/16 00:34:48;;;;;;;5.50;1.40;;;4.20;99.90;;;;;;5110354;27;20051;-76
2023/03/16 00:37:16;;;;;;;4.45;1.40;;;4.30;99.90;;;;;;5108910;27;20047;-76
2023/03/16 00:39:43;;;;;;;5.55;1.45;;;4.30;99.90;;;;;;5110054;27;20047;-76
2023/03/16 00:42:09;;;;;;;5.20;1.48;;;4.50;99.90;;;;;;5128103;27;20513;-76
2023/03/16 00:44:36;;;;;;;8.68;1.55;;;4.30;99.90;;;;;;5092392;27;20467;-76
2023/03/16 00:47:03;;;;;;;5.40;1.27;;;5.50;99.90;;;;;;5109814;27;20050;-76
2023/03/16 00:49:33;;;;;;;6.47;1.42;;;4.30;99.90;;;;;;5091176;27;20074;-76
2023/03/16 00:52:03;;;;;;;8.52;1.35;;;4.30;99.90;;;;;;5093749;27;20527;-76
2023/03/16 00:54:31;;;;;;;6.15;1.50;;;4.30;99.90;;;;;;5091550;27;20478;-76
2023/03/16 00:56:58;;;;;;;5.57;1.30;;;4.30;99.90;;;;;;5092366;27;20088;-76
2023/03/16 00:59:25;;;;;;;3.60;1.23;;;4.80;99.90;;;;;;5092497;27;20436;-76
2023/03/16 01:01:54;;;;;;;7.00;1.42;;;5.10;99.90;;;;;;5108825;27;20130;-76
2023/03/16 01:04:21;;;;;;;4.07;1.40;;;4.40;99.90;;;;;;5109846;27;20049;-76
2023/03/16 01:06:47;;;;;;;5.32;1.60;;;4.30;99.90;;;;;;5107974;27;20043;-77
2023/03/16 01:09:13;;;;;;;5.40;1.60;;;5.70;99.90;;;;;;5128426;27;20077;-76
2023/03/16 01:11:43;;;;;;;5.72;1.65;;;4.40;99.90;;;;;;5091419;27;20055;-76
2023/03/16 01:14:09;;;;;;;10.20;1.77;;;4.40;99.90;;;;;;5127585;27;20047;-76
2023/03/16 01:16:35;;;;;;;8.60;1.20;;;5.80;99.90;;;;;;5108966;27;20112;-76
2023/03/16 01:19:01;;;;;;;7.10;1.73;;;4.40;99.90;;;;;;5107814;27;20055;-76
2023/03/16 01:21:27;;;;;;;6.40;1.55;;;5.30;99.90;;;;;;5109103;27;20051;-76
2023/03/16 01:23:53;;;;;;;8.18;1.98;;;4.40;99.90;;;;;;5107260;27;20039;-76
2023/03/16 01:26:19;;;;;;;4.93;1.65;;;4.40;99.90;;;;;;5092374;27;20390;-77
2023/03/16 01:28:45;;;;;;;4.78;1.30;;;5.50;99.90;;;;;;5107887;27;20058;-76
2023/03/16 01:31:13;;;;;;;6.00;1.25;;;4.50;99.90;;;;;;5108269;27;20051;-76
2023/03/16 01:33:40;;;;;;;6.45;1.27;;;4.60;99.90;;;;;;5108410;27;20035;-77
2023/03/16 01:36:08;;;;;;;3.80;1.50;;;4.60;99.90;;;;;;5108011;27;20047;-76
2023/03/16 01:38:35;;;;;;;5.78;1.60;;;4.50;99.90;;;;;;5127689;27;20413;-76
2023/03/16 01:41:01;;;;;;;8.48;1.77;;;4.50;99.90;;;;;;5125366;27;20506;-76
2023/03/16 01:43:28;;;;;;;4.63;1.63;;;4.50;99.90;;;;;;5091948;27;20522;-76
2023/03/16 01:45:57;;;;;;;6.88;1.63;;;4.50;99.90;;;;;;5107844;27;20150;-76
2023/03/16 01:48:25;;;;;;;5.25;1.73;;;4.50;99.90;;;;;;5126238;27;20513;-76
2023/03/16 01:50:52;;;;;;;5.68;1.83;;;4.50;99.90;;;;;;5126707;27;20047;-76
2023/03/16 01:53:20;;;;;;;6.55;1.27;;;4.50;99.90;;;;;;5125973;27;20047;-78
2023/03/16 01:55:48;;;;;;;8.20;1.60;;;4.50;99.90;;;;;;5108263;27;20065;-77
2023/03/16 01:58:14;;;;;;;6.05;1.55;;;4.50;99.90;;;;;;5125509;27;20043;-76
2023/03/16 02:00:40;;;;;;;4.00;1.42;;;4.50;99.90;;;;;;5108304;27;20089;-76
2023/03/16 02:03:17;;;;;;;7.15;1.80;;;4.40;99.90;;;;;;5107496;27;20141;-76
2023/03/16 02:06:01;;;;;;;4.47;1.63;;;4.40;99.90;;;;;;5107742;27;20051;-77
2023/03/16 02:08:27;;;;;;;3.22;1.63;;;4.40;99.90;;;;;;5108450;27;20050;-76
2023/03/16 02:10:55;;;;;;;9.00;2.97;;;4.40;99.90;;;;;;5106875;27;20440;-77
2023/03/16 02:13:23;;;;;;;4.53;1.55;;;4.40;99.90;;;;;;5107774;27;20103;-77
2023/03/16 02:15:51;;;;;;;8.80;1.73;;;4.40;99.90;;;;;;5107070;27;20082;-77
2023/03/16 02:18:18;;;;;;;9.00;1.75;;;4.40;99.90;;;;;;5107390;27;20062;-76
2023/03/16 02:21:04;;;;;;;5.15;1.83;;;4.40;99.90;;;;;;5107638;27;20126;-76
2023/03/16 02:23:31;;;;;;;6.30;2.22;;;4.40;99.90;;;;;;5125099;27;20108;-76
2023/03/16 02:26:09;;;;;;;3.67;2.10;;;4.40;99.90;;;;;;5108612;27;20054;-76
2023/03/16 02:28:59;;;;;;;4.53;1.88;;;4.40;99.90;;;;;;5106852;27;20036;-76
2023/03/16 02:31:25;;;;;;;7.43;2.03;;;4.40;99.90;;;;;;5125809;27;20053;-76
2023/03/16 02:33:52;;;;;;;10.02;2.60;;;4.40;99.90;;;;;;5126539;27;20035;-76
2023/03/16 02:36:19;;;;;;;7.28;1.92;;;4.40;99.90;;;;;;5125271;27;20082;-76
2023/03/16 02:38:45;;;;;;;6.60;2.30;;;4.40;99.90;;;;;;5091818;28;20398;-77
2023/03/16 02:41:14;;;;;;;8.45;2.60;;;4.40;99.90;;;;;;5072252;28;20067;-77
2023/03/16 02:43:46;;;;;;;5.38;2.00;;;4.50;99.90;;;;;;5107258;28;20043;-78
2023/03/16 02:46:13;;;;;;;8.00;2.47;;;4.50;99.90;;;;;;5107509;28;20039;-77
2023/03/16 02:48:44;;;;;;;10.63;2.63;;;6.00;99.90;;;;;;5106528;28;20058;-76
2023/03/16 02:51:11;;;;;;;4.97;2.05;;;4.50;99.90;;;;;;5090385;28;20053;-77
2023/03/16 02:53:37;;;;;;;12.57;2.60;;;4.50;99.90;;;;;;5106099;28;20448;-78
2023/03/16 02:56:03;;;;;;;5.40;1.92;;;4.60;99.90;;;;;;5107964;28;20548;-77
2023/03/16 02:58:30;;;;;;;9.32;2.60;;;4.60;99.90;;;;;;5106189;28;20039;-77
2023/03/16 03:00:56;;;;;;;4.25;2.33;;;4.70;99.90;;;;;;5107638;28;20039;-77
2023/03/16 03:03:22;;;;;;;6.78;2.35;;;4.60;99.90;;;;;;5106791;28;20043;-77
2023/03/16 03:05:48;;;;;;;8.32;2.55;;;4.60;99.90;;;;;;5106899;27;20512;-76
2023/03/16 03:08:14;;;;;;;13.32;2.22;;;5.70;99.90;;;;;;5111248;27;20045;-76
2023/03/16 03:10:39;;;;;;;5.55;2.15;;;4.90;99.90;;;;;;5093639;27;20114;-76
2023/03/16 03:13:09;;;;;;;4.45;2.15;;;5.60;99.90;;;;;;5094659;27;20546;-76
2023/03/16 03:15:35;;;;;;;8.32;2.42;;;4.70;99.90;;;;;;5129024;27;20517;-76
2023/03/16 03:18:01;;;;;;;6.63;2.35;;;4.70;99.90;;;;;;5094169;27;20698;-76
2023/03/16 03:20:27;;;;;;;4.38;1.90;;;4.70;99.90;;;;;;5094171;27;20398;-77
2023/03/16 03:22:52;;;;;;;6.15;2.67;;;4.70;99.90;;;;;;5129256;27;20035;-77
2023/03/16 03:25:19;;;;;;;6.50;2.70;;;4.70;99.90;;;;;;5129556;27;20107;-77
2023/03/16 03:27:46;;;;;;;7.00;2.25;;;4.70;99.90;;;;;;5109804;27;20079;-77
2023/03/16 03:30:17;;;;;;;10.57;2.30;;;4.70;99.90;;;;;;5129959;27;20076;-77
2023/03/16 03:32:43;;;;;;;6.03;2.40;;;4.70;99.90;;;;;;5128529;27;20043;-77
2023/03/16 03:35:13;;;;;;;5.15;2.42;;;4.70;99.90;;;;;;5110817;27;20183;-77
2023/03/16 03:37:41;;;;;;;5.95;2.08;;;4.70;99.90;;;;;;5129050;27;20047;-77
2023/03/16 03:40:09;;;;;;;5.20;2.22;;;4.80;99.90;;;;;;5093989;27;20035;-77
2023/03/16 03:42:35;;;;;;;10.93;2.80;;;4.80;99.90;;;;;;5093898;27;20050;-77
2023/03/16 03:45:00;;;;;;;5.25;2.28;;;4.80;99.90;;;;;;5092491;27;20043;-77
2023/03/16 03:47:26;;;;;;;4.88;2.17;;;4.80;99.90;;;;;;5111086;27;20173;-77
2023/03/16 03:49:52;;;;;;;4.70;2.05;;;4.80;99.90;;;;;;5109546;27;20051;-77
2023/03/16 03:52:17;;;;;;;3.63;2.10;;;4.90;99.90;;;;;;5129025;27;20080;-77
2023/03/16 03:54:43;;;;;;;4.60;2.67;;;4.80;99.90;;;;;;5129359;27;20093;-77
2023/03/16 03:57:09;;;;;;;8.88;2.47;;;4.80;99.90;;;;;;5109946;27;20051;-77
2023/03/16 03:59:41;;;;;;;4.57;1.88;;;4.90;99.90;;;;;;5110578;27;20043;-77
2023/03/16 04:02:07;;;;;;;6.07;2.40;;;5.90;99.90;;;;;;5127891;27;20043;-77
2023/03/16 04:04:33;;;;;;;6.75;2.05;;;4.80;99.90;;;;;;5094213;27;20463;-77
2023/03/16 04:06:59;;;;;;;4.82;2.00;;;4.70;99.90;;;;;;5128167;27;20071;-76
2023/03/16 04:09:25;;;;;;;4.75;1.88;;;4.70;99.90;;;;;;5128577;27;20100;-76
2023/03/16 04:11:50;;;;;;;9.63;2.38;;;4.70;99.90;;;;;;5075956;27;20139;-77
2023/03/16 04:14:16;;;;;;;4.90;2.40;;;4.70;99.90;;;;;;5109890;27;20054;-76
2023/03/16 04:16:43;;;;;;;7.90;2.70;;;4.70;99.90;;;;;;5109856;27;20382;-76
2023/03/16 04:19:10;;;;;;;9.15;1.98;;;5.00;99.90;;;;;;5127668;27;20126;-76
2023/03/16 04:21:36;;;;;;;6.03;1.88;;;4.50;99.90;;;;;;5110875;27;20045;-77
2023/03/16 04:24:04;;;;;;;4.88;2.40;;;4.70;99.90;;;;;;5108847;27;20043;-76
2023/03/16 04:26:31;;;;;;;8.20;2.00;;;4.70;99.90;;;;;;5128758;27;20039;-76
2023/03/16 04:28:57;;;;;;;5.78;2.10;;;4.70;99.90;;;;;;5127844;27;20039;-76
2023/03/16 04:31:23;;;;;;;11.32;2.22;;;4.70;99.90;;;;;;5109185;27;20058;-76
2023/03/16 04:33:49;;;;;;;8.75;2.30;;;4.70;99.90;;;;;;5110265;27;20055;-76
2023/03/16 04:36:15;;;;;;;6.90;2.15;;;4.70;99.90;;;;;;5127370;27;20043;-76
2023/03/16 04:38:41;;;;;;;4.95;1.92;;;4.70;99.90;;;;;;5110127;27;20387;-76
2023/03/16 04:41:07;;;;;;;7.90;2.40;;;4.60;99.90;;;;;;5127077;27;20054;-76
2023/03/16 04:43:33;;;;;;;6.60;2.28;;;4.60;99.90;;;;;;5128061;27;20468;-76
2023/03/16 04:46:00;;;;;;;6.13;2.47;;;4.60;99.90;;;;;;5128544;27;20092;-76
2023/03/16 04:48:27;;;;;;;7.15;1.98;;;5.60;99.90;;;;;;5127426;27;20549;-76
2023/03/16 04:50:53;;;;;;;8.02;2.38;;;4.60;99.90;;;;;;5109494;27;20039;-76
2023/03/16 04:53:19;;;;;;;6.55;2.50;;;4.60;99.90;;;;;;5126809;27;20618;-76
2023/03/16 04:55:45;;;;;;;6.97;2.20;;;4.60;99.90;;;;;;5109800;27;20049;-76
2023/03/16 04:58:12;;;;;;;5.63;2.60;;;4.60;99.90;;;;;;5108076;27;20482;-76
2023/03/16 05:00:39;;;;;;;4.00;1.90;;;4.60;99.90;;;;;;5092647;27;20467;-76
2023/03/16 05:03:05;;;;;;;6.07;2.63;;;4.70;99.90;;;;;;5108800;27;20039;-76
2023/03/16 05:05:31;;;;;;;4.80;2.20;;;5.50;99.90;;;;;;5091842;27;20047;-76
2023/03/16 05:07:57;;;;;;;8.02;2.20;;;6.10;99.90;;;;;;5092010;27;20043;-76
2023/03/16 05:10:22;;;;;;;4.85;1.55;;;4.60;99.90;;;;;;5091118;27;20612;-76
2023/03/16 05:12:48;;;;;;;4.97;2.20;;;4.60;99.90;;;;;;5109281;27;20127;-76
2023/03/16 05:15:14;;;;;;;7.93;2.28;;;4.60;99.90;;;;;;5091465;27;20070;-76
2023/03/16 05:17:41;;;;;;;3.53;2.40;;;4.60;99.90;;;;;;5109270;27;20031;-76
2023/03/16 05:20:11;;;;;;;6.57;2.45;;;4.60;99.90;;;;;;5108968;27;20304;-76
2023/03/16 05:22:39;;;;;;;7.20;2.80;;;4.60;99.90;;;;;;5108822;27;20043;-77
2023/03/16 05:25:05;;;;;;;8.10;2.90;;;4.60;99.90;;;;;;5108636;27;20043;-76
2023/03/16 05:27:31;;;;;;;8.25;2.55;;;4.60;99.90;;;;;;5126086;27;20062;-77
2023/03/16 05:29:56;;;;;;;4.90;2.22;;;4.60;99.90;;;;;;5126975;27;20035;-76
2023/03/16 05:32:23;;;;;;;3.45;2.22;;;4.60;99.90;;;;;;5090621;27;20049;-76
2023/03/16 05:34:48;;;;;;;6.78;2.38;;;4.60;99.90;;;;;;5108786;27;20129;-76
2023/03/16 05:37:14;;;;;;;6.18;2.35;;;4.60;99.90;;;;;;5091118;27;20134;-78
2023/03/16 05:39:40;;;;;;;7.40;2.50;;;5.40;99.90;;;;;;5091224;27;20070;-78
2023/03/16 05:42:06;;;;;;;10.18;3.72;;;4.60;99.90;;;;;;5126849;27;20047;-77
2023/03/16 05:44:32;;;;;;;5.55;1.98;;;4.60;99.90;;;;;;5107143;27;20047;-77
2023/03/16 05:46:58;;;;;;;6.18;3.15;;;4.60;99.90;;;;;;5108823;27;20039;-78
2023/03/16 05:49:24;;;;;;;4.65;2.72;;;4.70;99.90;;;;;;5125844;27;20054;-77
2023/03/16 05:51:50;;;;;;;4.50;2.20;;;4.60;99.90;;;;;;5091269;27;20112;-78
2023/03/16 05:54:16;;;;;;;4.57;2.50;;;4.60;99.90;;;;;;5107229;27;20039;-78
2023/03/16 05:56:41;;;;;;;4.03;2.40;;;4.70;99.90;;;;;;5073808;27;20126;-77
2023/03/16 05:59:07;;;;;;;6.72;2.83;;;5.60;99.90;;;;;;5107786;27;20078;-77
2023/03/16 06:01:33;;;;;;;7.35;2.58;;;4.70;99.90;;;;;;5125661;27;20043;-77
2023/03/16 06:04:01;;;;;;;6.88;2.83;;;5.70;99.90;;;;;;5074438;27;20051;-78
2023/03/16 06:06:27;;;;;;;5.30;2.63;;;4.60;99.90;;;;;;5106631;27;20081;-77
2023/03/16 06:08:53;;;;;;;8.93;2.60;;;4.60;99.90;;;;;;5126594;27;20438;-77
2023/03/16 06:11:19;;;;;;;10.88;3.65;;;4.70;99.90;;;;;;5107071;27;20047;-77
2023/03/16 06:13:45;;;;;;;4.80;2.67;;;5.40;99.90;;;;;;5107293;27;20067;-78
2023/03/16 06:16:13;;;;;;;8.40;2.88;;;4.60;99.90;;;;;;5126391;27;20050;-77
2023/03/16 06:18:39;;;;;;;5.10;3.00;;;4.60;99.90;;;;;;5106613;27;20043;-79
2023/03/16 06:21:06;;;;;;;7.55;2.67;;;5.00;99.90;;;;;;5091096;27;20058;-76
2023/03/16 06:23:32;;;;;;;5.32;2.50;;;4.70;99.90;;;;;;5089088;27;20051;-76
2023/03/16 06:25:59;;;;;;;6.97;3.17;;;5.00;99.90;;;;;;5108111;27;20062;-76
2023/03/16 06:28:25;;;;;;;6.75;3.00;;;4.70;99.90;;;;;;5107539;28;20480;-76
2023/03/16 06:30:55;;;;;;;7.22;2.72;;;4.80;99.90;;;;;;5107473;27;20055;-76
2023/03/16 06:33:21;;;;;;;5.07;2.85;;;4.70;99.90;;;;;;5107224;28;20050;-76
2023/03/16 06:35:47;;;;;;;5.55;2.90;;;4.70;99.90;;;;;;5106571;27;20047;-75
2023/03/16 06:38:13;;;;;;;5.43;2.45;;;4.70;99.90;;;;;;5107628;28;20074;-75
2023/03/16 06:40:40;;;;;;;8.20;3.20;;;4.90;99.90;;;;;;5106735;28;20556;-75
2023/03/16 06:43:06;;;;;;;10.15;3.33;;;4.70;99.90;;;;;;5107669;28;20490;-77
2023/03/16 06:45:32;;;;;;;10.20;4.55;;;4.70;99.90;;;;;;5125573;28;20127;-75
2023/03/16 06:47:58;;;;;;;8.82;3.35;;;4.70;99.90;;;;;;5125898;28;20122;-77
2023/03/16 06:50:24;;;;;;;7.00;2.75;;;4.70;99.90;;;;;;5126041;28;20043;-76
2023/03/16 06:52:50;;;;;;;7.13;2.63;;;4.80;99.90;;;;;;5125488;28;20475;-77
2023/03/16 06:55:16;;;;;;;6.88;2.58;;;4.80;99.90;;;;;;5091399;28;20035;-79
2023/03/16 06:57:42;;;;;;;8.43;2.78;;;4.80;99.90;;;;;;5089446;28;20493;-76
2023/03/16 07:00:12;;;;;;;9.93;2.60;;;5.60;99.90;;;;;;5126451;28;20047;-76
2023/03/16 07:02:39;;;;;;;4.25;2.65;;;4.90;99.90;;;;;;5106499;28;20054;-76
2023/03/16 07:05:06;;;;;;;5.70;3.03;;;4.80;99.90;;;;;;5125806;28;20095;-76
2023/03/16 07:07:32;;;;;;;5.95;2.70;;;4.90;99.90;;;;;;5089939;28;20512;-78
2023/03/16 07:09:58;;;;;;;4.60;2.30;;;4.90;99.90;;;;;;5125043;28;20047;-76
2023/03/16 07:12:24;;;;;;;8.18;2.72;;;4.90;99.90;;;;;;5107364;28;20498;-76
2023/03/16 07:14:50;;;;;;;5.35;2.60;;;5.00;99.90;;;;;;5106058;28;20051;-76
2023/03/16 07:17:16;;;;;;;9.18;2.30;;;5.00;99.90;;;;;;5107628;28;20043;-75
2023/03/16 07:19:42;;;;;;;5.85;2.75;;;6.20;99.90;;;;;;5124997;28;20043;-76
2023/03/16 07:22:08;;;;;;;11.52;2.78;;;5.00;99.90;;;;;;5090087;28;20086;-76
2023/03/16 07:24:34;;;;;;;5.32;2.88;;;5.10;99.90;;;;;;5106651;28;20035;-76
2023/03/16 07:27:00;;;;;;;9.00;3.63;;;5.30;99.90;;;;;;5089499;28;20205;-76
2023/03/16 07:29:27;;;;;;;6.45;2.55;;;5.10;99.90;;;;;;5107265;28;20059;-76
2023/03/16 07:31:53;;;;;;;10.43;2.30;;;5.10;99.90;;;;;;5124457;28;20082;-77
2023/03/16 07:34:20;;;;;;;4.30;2.45;;;5.20;99.90;;;;;;5126103;28;20043;-77
2023/03/16 07:36:47;;;;;;;8.57;2.70;;;5.20;99.90;;;;;;5124542;28;20100;-78
2023/03/16 07:39:16;;;;;;;6.28;2.45;;;5.20;99.90;;;;;;5125664;28;20079;-77
2023/03/16 07:41:42;;;;;;;2.83;2.00;;;5.30;99.90;;;;;;5107334;28;20504;-77
2023/03/16 07:44:10;;;;;;;7.28;2.70;;;5.30;99.90;;;;;;5106242;28;20047;-81
2023/03/16 07:46:35;;;;;;;4.43;2.53;;;5.30;99.90;;;;;;5107784;28;20486;-78
2023/03/16 07:49:01;;;;;;;6.40;2.72;;;5.40;99.90;;;;;;5105454;28;20047;-79
2023/03/16 07:51:27;;;;;;;7.05;2.13;;;5.40;99.90;;;;;;5125850;27;20043;-78
2023/03/16 07:53:53;;;;;;;6.45;2.60;;;5.90;99.90;;;;;;5075772;27;20043;-78
2023/03/16 07:56:20;;;;;;;6.00;2.85;;;5.60;99.90;;;;;;5110183;27;20051;-78
2023/03/16 07:58:46;;;;;;;6.80;2.17;;;5.50;99.90;;;;;;5110160;27;20047;-78
2023/03/16 08:01:11;;;;;;;5.93;2.97;;;5.50;99.90;;;;;;5128391;27;20046;-78
2023/03/16 08:03:37;;;;;;;5.93;2.55;;;5.50;99.90;;;;;;5093377;27;20379;-78
2023/03/16 08:06:04;;;;;;;7.32;2.22;;;5.60;99.90;;;;;;5108856;27;20047;-78
2023/03/16 08:08:30;;;;;;;4.97;2.65;;;5.70;99.90;;;;;;5129155;27;20047;-78
2023/03/16 08:10:56;;;;;;;8.50;2.70;;;5.70;99.90;;;;;;5109138;27;20050;-77
2023/03/16 08:13:22;;;;;;;3.92;2.40;;;5.80;99.90;;;;;;5106457;28;20055;-78
2023/03/16 08:15:57;;;;;;;6.97;3.20;;;6.80;99.90;;;;;;5106900;28;20487;-78
2023/03/16 08:18:24;;;;;;;4.78;2.72;;;5.90;99.90;;;;;;5105827;28;20510;-78
2023/03/16 08:20:49;;;;;;;6.63;2.90;;;5.90;99.90;;;;;;5108900;28;20040;-78
2023/03/16 08:23:16;;;;;;;7.18;3.40;;;6.80;99.90;;;;;;5105766;28;20508;-77
2023/03/16 08:25:42;;;;;;;5.28;2.47;;;6.00;99.90;;;;;;5073830;28;20074;-77
2023/03/16 08:28:09;;;;;;;7.75;2.30;;;6.00;99.90;;;;;;5105874;28;20458;-77
2023/03/16 08:30:35;;;;;;;4.90;2.67;;;6.00;99.90;;;;;;5072585;28;20130;-77
2023/03/16 08:33:02;;;;;;;3.55;2.30;;;5.90;99.90;;;;;;5105725;28;20079;-77
2023/03/16 08:35:28;;;;;;;5.70;2.60;;;5.90;99.90;;;;;;5072063;28;20051;-77
2023/03/16 08:37:55;;;;;;;7.20;2.85;;;5.90;99.90;;;;;;5105939;28;20040;-76
2023/03/16 08:40:21;;;;;;;3.88;2.40;;;5.90;99.90;;;;;;5087992;28;20043;-76
2023/03/16 08:42:51;;;;;;;5.53;2.65;;;5.90;99.90;;;;;;5107651;28;20046;-76
2023/03/16 08:45:18;;;;;;;4.47;2.35;;;6.00;99.90;;;;;;5088378;28;20402;-76
2023/03/16 08:47:49;;;;;;;6.50;2.72;;;5.90;99.90;;;;;;5105695;28;20425;-76
2023/03/16 08:50:14;;;;;;;5.63;2.88;;;5.70;99.90;;;;;;5105183;28;20582;-76
2023/03/16 08:52:41;;;;;;;6.22;2.63;;;5.80;99.90;;;;;;5106370;28;20135;-76
2023/03/16 08:55:09;;;;;;;9.23;2.83;;;5.80;99.90;;;;;;5106098;28;20130;-76
2023/03/16 08:57:36;;;;;;;5.63;2.42;;;5.80;99.90;;;;;;5071314;28;20081;-76
2023/03/16 09:00:11;;;;;;;5.53;2.53;;;5.80;99.90;;;;;;5106223;28;20059;-77
2023/03/16 09:02:39;;;;;;;5.20;2.47;;;5.80;99.90;;;;;;5105105;28;20088;-77
2023/03/16 09:05:07;;;;;;;6.38;2.80;;;5.80;99.90;;;;;;5104306;28;20616;-78
2023/03/16 09:07:35;;;;;;;9.55;3.05;;;5.80;99.90;;;;;;5088207;28;20513;-77
2023/03/16 09:10:04;;;;;;;5.18;2.78;;;6.70;99.90;;;;;;5087617;28;20039;-77
2023/03/16 09:12:31;;;;;;;6.25;2.83;;;6.90;99.90;;;;;;5105846;28;20078;-77
2023/03/16 09:14:57;;;;;;;5.28;2.80;;;6.00;99.90;;;;;;5087341;28;20289;-78
2023/03/16 09:17:23;;;;;;;7.63;2.50;;;5.90;99.90;;;;;;5105678;28;20039;-77
2023/03/16 09:19:49;;;;;;;4.70;2.30;;;5.90;99.90;;;;;;5105373;28;20043;-78
2023/03/16 09:22:15;;;;;;;5.38;2.65;;;5.90;99.90;;;;;;5088100;28;20079;-78
2023/03/16 09:24:41;;;;;;;5.50;3.10;;;5.90;99.90;;;;;;5105331;28;20040;-78
2023/03/16 09:27:07;;;;;;;5.70;2.58;;;6.30;99.90;;;;;;5104689;28;20047;-78
2023/03/16 09:29:33;;;;;;;5.38;2.63;;;5.80;99.90;;;;;;5088670;28;20395;-77
2023/03/16 09:31:58;;;;;;;3.38;2.20;;;5.80;99.90;;;;;;5103781;28;20093;-78
2023/03/16 09:34:24;;;;;;;4.97;3.10;;;5.80;99.90;;;;;;5088460;28;20058;-77
2023/03/16 09:36:50;;;;;;;7.75;2.90;;;5.80;99.90;;;;;;5104492;28;20148;-78
2023/03/16 09:39:16;;;;;;;6.45;2.83;;;5.80;99.90;;;;;;5104714;28;20051;-78
2023/03/16 09:42:00;;;;;;;8.25;3.17;;;5.80;99.90;;;;;;5106081;28;20048;-78
2023/03/16 09:44:27;;;;;;;;;;;5.80;99.90;;;;;;5104557;28;20047;-78
2023/03/16 09:46:55;;;;;;;7.30;2.75;;;7.50;99.90;;;;;;5107014;28;19963;-78
2023/03/16 09:49:35;;;;;;;6.07;2.80;;;7.50;99.90;;;;;;5104215;28;20121;-77
2023/03/16 09:52:37;;;;;;;9.88;3.85;;;6.10;99.90;;;;;;5104901;28;20324;-76
2023/03/16 09:55:15;;;;;;;11.05;3.05;;;6.10;99.90;;;;;;5087701;28;20487;-76
2023/03/16 09:57:43;;;;;;;8.32;2.75;;;6.30;99.90;;;;;;5103637;28;20039;-76
2023/03/16 10:00:17;;;;;;;8.73;2.95;;;6.30;99.90;;;;;;5104527;28;20044;-76
2023/03/16 10:03:03;;;;;;;4.72;2.78;;;6.40;99.90;;;;;;5105404;28;20138;-76
2023/03/16 10:05:29;;;;;;;9.80;3.38;;;7.10;99.90;;;;;;5094130;28;20325;-76
2023/03/16 10:08:21;;;;;;;9.73;2.97;;;6.50;99.90;;;;;;5105230;28;20067;-76
2023/03/16 10:11:16;;;;;;;6.60;3.08;;;6.50;99.90;;;;;;5086725;28;20260;-76
2023/03/16 10:13:58;;;;;;;5.40;2.72;;;6.60;99.90;;;;;;5087022;28;20509;-76
2023/03/16 10:16:40;;;;;;;2.83;1.88;;;7.20;99.90;;;;;;5087199;28;20487;-76
2023/03/16 10:19:15;;;;;;;4.55;2.78;;;6.50;99.90;;;;;;5103158;28;20536;-76
2023/03/16 10:21:42;;;;;;;4.32;2.58;;;6.50;99.90;;;;;;5105855;27;20047;-76
2023/03/16 10:24:44;;;;;;;6.05;3.08;;;6.60;99.90;;;;;;5086791;28;20044;-76
2023/03/16 10:27:25;;;;;;;9.98;2.65;;;6.70;99.90;;;;;;5103400;28;20460;-76
2023/03/16 10:29:51;;;;;;;8.70;3.67;;;6.70;99.90;;;;;;5106671;28;20067;-76
2023/03/16 10:32:18;;;;;;;7.82;3.47;;;6.70;99.90;;;;;;5103465;28;20519;-77
2023/03/16 10:35:13;;;;;;;8.43;3.13;;;6.70;99.90;;;;;;5103845;28;20123;-76
2023/03/16 10:37:39;;;;;;;7.60;3.78;;;6.70;99.90;;;;;;5105369;28;20043;-76
2023/03/16 10:40:08;;;;;;;6.90;2.95;;;6.60;99.90;;;;;;5068907;28;20040;-75
2023/03/16 10:42:35;;;;;;;10.23;3.42;;;6.60;99.90;;;;;;5087414;28;20126;-76
2023/03/16 10:45:02;;;;;;;7.78;2.90;;;7.10;99.90;;;;;;5104078;28;20122;-76
2023/03/16 10:47:31;;;;;;;6.13;2.90;;;6.60;99.90;;;;;;5103832;28;20525;-77
2023/03/16 10:49:57;;;;;;;6.63;3.60;;;6.60;99.90;;;;;;5087141;28;20050;-76
2023/03/16 10:52:38;;;;;;;5.88;2.95;;;6.60;99.90;;;;;;5103180;28;20036;-76
2023/03/16 10:55:25;;;;;;;10.60;3.95;;;6.60;99.90;;;;;;5104681;28;20065;-76
2023/03/16 10:57:53;;;;;;;7.38;3.50;;;6.60;99.90;;;;;;5102680;28;20101;-76
2023/03/16 11:00:35;;;;;;;7.95;3.33;;;6.60;99.90;;;;;;5086807;28;20085;-76
2023/03/16 11:03:11;;;;;;;4.35;3.38;;;6.60;99.90;;;;;;5086839;28;20047;-76
2023/03/16 11:05:38;;;;;;;6.10;3.40;;;6.60;99.90;;;;;;5103330;28;20085;-76
2023/03/16 11:08:11;;;;;;;6.72;3.40;;;6.60;99.90;;;;;;5104347;28;20048;-79
2023/03/16 11:10:43;;;;;;;8.55;3.53;;;6.60;99.90;;;;;;5102596;28;20043;-77
2023/03/16 11:13:20;;;;;;;5.78;3.10;;;6.60;99.90;;;;;;5103480;28;20071;-76
2023/03/16 11:16:01;;;;;;;6.90;3.70;;;6.60;99.90;;;;;;5086822;28;20051;-77
2023/03/16 11:18:47;;;;;;;7.75;3.25;;;6.60;99.90;;;;;;5103244;28;20620;-77
2023/03/16 11:21:43;;;;;;;6.20;3.28;;;6.60;99.90;;;;;;5104598;28;20043;-76
2023/03/16 11:24:24;;;;;;;6.20;3.88;;;6.60;99.90;;;;;;5099530;28;20051;-76
2023/03/16 11:26:54;;;;;;;5.43;3.17;;;6.60;99.90;;;;;;5104822;28;20402;-76
2023/03/16 11:29:51;;;;;;;6.35;3.30;;;6.70;99.90;;;;;;5107864;28;20047;-76
2023/03/16 11:32:28;;;;;;;5.55;2.97;;;6.80;99.90;;;;;;5108060;28;20044;-76
2023/03/16 11:34:54;;;;;;;16.95;3.95;;;6.90;99.90;;;;;;5108497;28;20048;-76
2023/03/16 11:37:29;;;;;;;10.80;3.28;;;7.00;99.90;;;;;;5090803;28;20047;-76
2023/03/16 11:40:27;;;;;;;7.47;2.78;;;7.10;99.90;;;;;;5089037;28;20488;-76
2023/03/16 11:43:15;;;;;;;6.75;3.10;;;7.20;99.90;;;;;;5090396;28;20130;-76
2023/03/16 11:45:56;;;;;;;6.32;2.40;;;7.30;99.90;;;;;;5106824;28;20079;-76
2023/03/16 11:48:35;;;;;;;6.40;2.90;;;7.30;99.90;;;;;;5107752;28;20123;-76
2023/03/16 11:51:45;;;;;;;9.23;3.45;;;8.10;99.90;;;;;;5107957;28;20122;-76
2023/03/16 11:54:33;;;;;;;6.95;3.17;;;7.40;99.90;;;;;;5099946;28;20445;-76
2023/03/16 11:57:03;;;;;;;7.22;3.00;;;7.40;99.90;;;;;;5089168;28;20433;-77
2023/03/16 12:00:07;;;;;;;8.57;3.05;;;7.50;99.90;;;;;;5090699;28;20058;-77
2023/03/16 12:02:54;;;;;;;5.30;3.47;;;7.50;99.90;;;;;;5089460;28;20120;-77
2023/03/16 12:05:26;;;;;;;8.07;3.05;;;7.80;99.90;;;;;;5105869;28;20062;-76
2023/03/16 12:08:23;;;;;;;5.07;2.55;;;7.50;99.90;;;;;;5107691;28;20414;-76
2023/03/16 12:11:03;;;;;;;6.97;2.72;;;7.50;99.90;;;;;;5106298;28;20060;-77
2023/03/16 12:13:45;;;;;;;4.00;2.10;;;7.60;99.90;;;;;;5105964;28;20048;-77
2023/03/16 12:16:18;;;;;;;7.78;2.28;;;7.70;99.90;;;;;;5106630;28;20579;-77
2023/03/16 12:19:11;;;;;;;5.95;2.67;;;7.80;99.90;;;;;;5105728;28;20422;-77
2023/03/16 12:21:42;;;;;;;7.75;2.75;;;7.90;99.90;;;;;;5082708;27;20059;-77
2023/03/16 12:24:25;;;;;;;4.93;2.40;;;8.20;99.90;;;;;;5089807;28;20039;-76
2023/03/16 12:26:52;;;;;;;;;;;8.10;99.90;;;;;;5105994;28;20044;-76
2023/03/16 12:29:36;;;;;;;7.35;2.30;;;8.20;99.90;;;;;;5123821;27;20428;-76
2023/03/16 12:32:27;;;;;;;5.53;2.08;;;8.30;99.90;;;;;;5105547;28;20050;-76
2023/03/16 12:35:00;;;;;;;10.20;3.30;;;8.40;99.90;;;;;;5107281;28;20043;-76
2023/03/16 12:37:49;;;;;;;4.60;2.25;;;8.50;99.90;;;;;;5106718;28;20780;-76
2023/03/16 12:40:24;;;;;;;4.78;2.13;;;8.60;99.90;;;;;;5104942;28;20132;-77
2023/03/16 12:42:52;;;;;;;5.00;2.38;;;8.70;99.90;;;;;;5107575;28;20096;-76
2023/03/16 12:45:21;;;;;;;7.30;2.20;;;8.80;99.90;;;;;;5089207;28;20066;-76
2023/03/16 12:48:04;;;;;;;6.03;2.58;;;8.80;99.90;;;;;;5107115;28;20631;-76
2023/03/16 12:50:30;;;;;;;;;;;8.80;99.90;;;;;;5107204;28;20043;-76
2023/03/16 12:52:56;;;;;;;4.28;2.10;;;8.90;99.90;;;;;;5122567;27;20370;-75
2023/03/16 12:55:36;;;;;;;4.53;2.03;;;8.90;99.90;;;;;;5107733;28;20046;-75
2023/03/16 12:58:06;;;;;;;2.70;1.92;;;9.00;99.90;;;;;;5105393;28;20047;-76
2023/03/16 13:00:37;;;;;;;3.53;2.40;;;9.00;99.90;;;;;;5107145;28;20047;-76
2023/03/16 13:03:10;;;;;;;4.00;2.25;;;9.10;99.90;;;;;;5106970;28;20047;-76
2023/03/16 13:05:42;;;;;;;5.05;2.05;;;9.10;99.90;;;;;;5105040;28;20052;-76
2023/03/16 13:08:17;;;;;;;4.17;1.87;;;9.10;99.90;;;;;;5107501;28;20044;-76
2023/03/16 13:11:09;;;;;;;4.82;2.10;;;9.40;99.90;;;;;;5106762;28;20097;-76
2023/03/16 13:14:06;;;;;;;4.30;2.25;;;9.10;99.90;;;;;;5124966;27;20063;-76